Time;durP1;ratioP1;P1;durP2;ratioP2;P2;SDS_P1;SDS_P2;PMS_P1;PMS_P2;Temp;Humidity;BMP_temperature;BMP_pressure;BME280_temperature;BME280_humidity;BME280_pressure;Samples;Min_cycle;Max_cycle;Signal;HPM_P1;HPM_P2
2021/09/21 00:00:14;;;;;;;40.63;37.33;;;;;;;8.84;74.44;102122.75;5028402;28;20497;-71
2021/09/21 00:02:43;;;;;;;51.20;47.30;;;;;;;8.76;74.03;102106.09;5027878;28;20830;-70
2021/09/21 00:05:11;;;;;;;274.70;108.43;;;;;;;8.82;73.68;102121.94;5027855;28;21008;-71
2021/09/21 00:07:40;;;;;;;378.23;135.80;;;;;;;8.85;73.26;102123.63;5043293;28;20466;-71
2021/09/21 00:10:09;;;;;;;395.03;141.43;;;;;;;8.83;73.64;102125.47;5027974;28;20834;-71
2021/09/21 00:12:38;;;;;;;530.37;181.53;;;;;;;8.80;73.74;102126.47;5029224;28;20456;-71
2021/09/21 00:15:09;;;;;;;523.17;170.00;;;;;;;8.74;73.95;102123.16;5029610;28;20574;-70
2021/09/21 00:17:39;;;;;;;521.90;168.20;;;;;;;8.69;74.21;102118.00;5028389;28;20475;-71
2021/09/21 00:20:10;;;;;;;47.67;43.97;;;;;;;8.56;74.31;102092.59;5027634;28;20875;-71
2021/09/21 00:22:38;;;;;;;46.57;42.97;;;;;;;8.67;73.69;102120.72;5028081;28;20486;-70
2021/09/21 00:25:08;;;;;;;40.80;37.50;;;;;;;8.69;73.78;102118.84;5026498;28;20473;-70
2021/09/21 00:27:36;;;;;;;39.97;36.77;;;;;;;8.70;73.79;102111.69;5027816;28;20698;-70
2021/09/21 00:30:06;;;;;;;51.17;42.53;;;;;;;8.68;74.16;102110.88;5027811;28;20508;-70
2021/09/21 00:32:34;;;;;;;46.67;43.07;;;;;;;8.65;74.67;102111.00;5027719;28;20934;-70
2021/09/21 00:35:05;;;;;;;50.07;46.20;;;;;;;8.58;75.00;102107.69;5026303;28;20457;-70
2021/09/21 00:37:32;;;;;;;54.47;50.37;;;;;;;8.50;75.50;102099.06;5028001;28;20456;-70
2021/09/21 00:40:01;;;;;;;41.37;38.10;;;;;;;8.51;75.04;102102.59;5026299;28;21228;-70
2021/09/21 00:42:31;;;;;;;384.87;124.97;;;;;;;8.51;74.70;102087.41;5027419;28;20466;-70
2021/09/21 00:45:07;;;;;;;378.60;124.73;;;;;;;8.58;74.32;102085.41;5024827;28;20488;-70
2021/09/21 00:47:35;;;;;;;384.50;141.07;;;;;;;8.56;74.68;102077.41;5031321;28;20463;-70
2021/09/21 00:50:05;;;;;;;56.43;52.23;;;;;;;8.58;74.34;102082.72;5031036;28;20445;-69
2021/09/21 00:52:34;;;;;;;46.23;42.63;;;;;;;8.56;74.35;102073.84;5026928;28;20464;-70
2021/09/21 00:55:03;;;;;;;391.17;149.83;;;;;;;8.58;74.70;102074.69;5022837;28;20442;-70
2021/09/21 00:57:32;;;;;;;518.97;169.23;;;;;;;8.59;74.13;102073.75;5030803;28;20451;-70
2021/09/21 01:00:00;;;;;;;430.17;168.60;;;;;;;8.56;74.38;102065.81;5030947;28;20447;-70
2021/09/21 01:02:28;;;;;;;395.03;130.43;;;;;;;8.57;74.38;102059.53;5028595;28;20443;-70
2021/09/21 01:04:56;;;;;;;375.73;115.30;;;;;;;8.61;75.42;102066.53;5012247;28;20483;-70
2021/09/21 01:07:26;;;;;;;160.23;80.93;;;;;;;8.38;78.04;102029.94;5018153;28;20457;-70
2021/09/21 01:10:02;;;;;;;53.97;49.97;;;;;;;8.28;78.81;101999.94;5030380;28;20823;-70
2021/09/21 01:12:30;;;;;;;52.97;49.23;;;;;;;8.77;77.99;102064.13;5030944;28;20484;-70
2021/09/21 01:14:58;;;;;;;64.10;59.57;;;;;;;8.80;78.30;102059.53;5015715;28;20952;-70
2021/09/21 01:17:26;;;;;;;63.17;57.07;;;;;;;8.81;78.60;102058.59;5029762;28;20808;-70
2021/09/21 01:19:54;;;;;;;159.53;78.93;;;;;;;8.84;77.59;102052.22;5045403;28;20553;-70
2021/09/21 01:22:25;;;;;;;53.03;49.17;;;;;;;8.82;76.40;102054.97;5030591;28;20455;-70
2021/09/21 01:24:54;;;;;;;61.47;57.07;;;;;;;8.81;75.95;102057.72;5030130;28;21069;-70
2021/09/21 01:27:22;;;;;;;71.90;65.67;;;;;;;8.81;76.21;102063.94;5045816;28;20459;-71
2021/09/21 01:29:50;;;;;;;69.60;64.70;;;;;;;8.80;76.13;102064.00;5030216;28;20442;-71
2021/09/21 01:32:20;;;;;;;72.40;67.40;;;;;;;8.79;76.07;102060.44;5030187;28;20448;-70
2021/09/21 01:34:50;;;;;;;55.00;51.00;;;;;;;8.80;75.45;102067.56;5030192;28;20446;-70
2021/09/21 01:37:19;;;;;;;368.53;102.83;;;;;;;8.75;76.54;102060.63;5030081;28;20993;-70
2021/09/21 01:39:49;;;;;;;368.87;107.30;;;;;;;8.69;77.35;102051.91;5036400;28;20462;-70
2021/09/21 01:42:17;;;;;;;378.57;111.77;;;;;;;8.83;75.91;102061.19;5010936;28;20875;-70
2021/09/21 01:44:45;;;;;;;370.03;109.73;;;;;;;8.84;76.09;102062.94;5029927;28;20570;-70
2021/09/21 01:47:15;;;;;;;65.40;60.83;;;;;;;8.68;76.09;102046.63;5030079;28;20861;-71
2021/09/21 01:49:52;;;;;;;56.87;52.80;;;;;;;8.66;76.19;102053.84;5029694;28;20461;-70
2021/09/21 01:52:25;;;;;;;51.87;48.00;;;;;;;8.56;76.24;102042.59;5024393;28;20449;-70
2021/09/21 02:00:25;;;;;;;61.83;57.47;;;;;;;8.59;75.95;102055.88;5027359;28;20457;-71
2021/09/21 02:02:53;;;;;;;62.37;57.97;;;;;;;8.55;75.89;102054.22;5029890;28;20964;-71
2021/09/21 02:05:21;;;;;;;63.10;58.63;;;;;;;8.56;75.91;102047.94;5029992;28;20508;-71
2021/09/21 02:07:49;;;;;;;58.70;54.53;;;;;;;8.57;76.18;102054.16;5029395;28;20450;-71
2021/09/21 02:10:20;;;;;;;71.00;66.10;;;;;;;8.57;75.65;102046.13;5029577;28;20460;-71
2021/09/21 02:12:48;;;;;;;60.60;56.30;;;;;;;7.62;75.49;101904.34;5028886;28;20475;-71
2021/09/21 02:15:16;;;;;;;63.90;59.40;;;;;;;8.56;75.55;102055.09;5029539;28;20534;-71
2021/09/21 02:17:44;;;;;;;66.10;61.43;;;;;;;8.58;75.52;102050.59;5028947;28;20979;-71
2021/09/21 02:20:13;;;;;;;57.90;53.80;;;;;;;8.36;75.45;102015.72;5044274;28;20575;-71
2021/09/21 02:22:41;;;;;;;55.13;51.17;;;;;;;8.54;75.37;102039.09;5030048;28;20449;-71
2021/09/21 02:25:10;;;;;;;59.90;55.67;;;;;;;8.53;75.52;102044.50;5026009;28;20985;-71
2021/09/21 02:27:40;;;;;;;61.67;57.30;;;;;;;8.50;76.06;102041.97;5022542;28;20543;-70
2021/09/21 02:30:08;;;;;;;55.83;51.83;;;;;;;8.48;75.82;102043.81;5029845;28;20987;-70
2021/09/21 02:32:37;;;;;;;66.10;61.53;;;;;;;8.46;76.70;102045.69;5029131;28;20464;-71
2021/09/21 02:35:07;;;;;;;66.57;61.93;;;;;;;8.44;76.32;102031.50;5029152;28;20935;-71
2021/09/21 02:37:36;;;;;;;55.97;51.93;;;;;;;7.86;75.90;101938.19;5029070;28;20462;-71
2021/09/21 02:40:05;;;;;;;53.03;49.23;;;;;;;8.45;76.43;102039.47;5028882;28;20963;-71
2021/09/21 02:42:33;;;;;;;56.00;52.00;;;;;;;8.39;75.75;102021.84;5028659;28;20451;-71
2021/09/21 02:45:04;;;;;;;52.53;48.73;;;;;;;8.05;76.03;101963.34;5028645;28;20484;-71
2021/09/21 02:47:32;;;;;;;55.77;51.80;;;;;;;8.43;76.47;102035.09;5029111;28;20540;-71
2021/09/21 02:50:01;;;;;;;58.97;54.80;;;;;;;8.43;76.46;102025.25;5029086;28;20500;-71
2021/09/21 02:52:29;;;;;;;53.67;49.80;;;;;;;8.45;76.69;102022.53;5029151;28;20449;-70
2021/09/21 02:54:57;;;;;;;55.13;51.20;;;;;;;8.50;75.58;102024.09;5029222;28;20478;-71
2021/09/21 02:57:25;;;;;;;59.37;55.10;;;;;;;8.51;77.11;102016.94;5028670;28;20955;-71
2021/09/21 02:59:53;;;;;;;58.97;54.70;;;;;;;8.52;78.09;102021.34;5028847;28;20446;-71
2021/09/21 03:02:23;;;;;;;75.17;70.10;;;;;;;8.58;79.07;102022.00;5026543;28;20483;-71
2021/09/21 03:04:55;;;;;;;60.57;56.23;;;;;;;8.67;78.23;102023.44;5028497;28;20939;-71
2021/09/21 03:07:31;;;;;;;66.73;62.07;;;;;;;8.70;77.53;102016.16;5028627;28;21069;-71
2021/09/21 03:10:10;;;;;;;67.53;62.83;;;;;;;8.76;76.99;102020.41;5028897;28;20445;-71
2021/09/21 03:13:15;;;;;;;61.57;57.07;;;;;;;8.78;76.11;102017.66;5028837;28;20461;-71
2021/09/21 03:18:31;;;;;;;54.47;50.57;;;;;;;8.74;75.97;102011.56;5029051;28;20461;-70
2021/09/21 03:20:59;;;;;;;72.27;67.30;;;;;;;8.74;76.33;102014.22;5028470;28;20461;-70
2021/09/21 03:23:28;;;;;;;53.27;49.43;;;;;;;8.32;76.42;101952.53;5028601;28;20453;-70
2021/09/21 03:25:56;;;;;;;65.77;61.17;;;;;;;8.72;77.56;102016.09;5027067;28;20545;-70
2021/09/21 03:28:24;;;;;;;62.10;57.67;;;;;;;8.73;77.35;102009.81;5028255;28;20491;-70
2021/09/21 03:30:52;;;;;;;60.33;56.03;;;;;;;8.75;76.91;102007.94;5028245;28;20710;-70
2021/09/21 03:33:21;;;;;;;80.73;75.27;;;;;;;8.77;76.63;102010.56;5028429;28;20461;-70
2021/09/21 03:35:50;;;;;;;71.90;66.93;;;;;;;8.41;76.72;101957.53;5028009;28;20463;-70
2021/09/21 03:38:18;;;;;;;61.67;57.30;;;;;;;8.72;76.69;102005.38;5028265;28;20455;-70
2021/09/21 03:40:46;;;;;;;59.50;55.27;;;;;;;8.30;76.62;101944.53;5028287;28;20461;-69
2021/09/21 03:43:14;;;;;;;61.40;57.07;;;;;;;8.38;76.59;101958.53;5028624;28;20858;-70
2021/09/21 03:45:43;;;;;;;59.30;55.03;;;;;;;8.67;76.16;102018.09;5026490;28;20492;-69
2021/09/21 03:48:11;;;;;;;66.10;61.47;;;;;;;8.60;75.96;102001.41;5025670;28;20469;-70
2021/09/21 03:50:39;;;;;;;60.27;55.93;;;;;;;8.67;75.76;102010.06;5023061;28;21016;-70
2021/09/21 03:53:08;;;;;;;71.17;66.20;;;;;;;8.68;75.24;102009.13;5022799;28;20522;-70
2021/09/21 03:55:37;;;;;;;84.27;78.60;;;;;;;8.66;75.97;102002.97;5017389;28;20523;-70
2021/09/21 03:58:05;;;;;;;78.40;73.07;;;;;;;8.63;75.97;102003.09;5011996;28;20950;-70
2021/09/21 04:00:33;;;;;;;71.30;66.37;;;;;;;8.65;76.12;101996.72;5012647;28;20949;-70
2021/09/21 04:03:01;;;;;;;67.17;62.47;;;;;;;8.54;75.95;101982.00;5024488;28;20512;-70
2021/09/21 04:05:29;;;;;;;58.63;54.57;;;;;;;8.62;75.63;101996.84;5026976;28;20865;-70
2021/09/21 04:07:57;;;;;;;50.50;46.97;;;;;;;8.33;76.06;101960.50;5024312;28;20480;-70
2021/09/21 04:10:27;;;;;;;61.10;56.90;;;;;;;8.60;76.36;102001.41;5027820;28;20946;-70
2021/09/21 04:12:55;;;;;;;65.07;60.67;;;;;;;8.60;76.18;101998.72;5024297;28;20918;-70
2021/09/21 04:15:23;;;;;;;59.27;55.17;;;;;;;8.61;75.48;101991.56;5030549;28;20874;-71
2021/09/21 04:17:51;;;;;;;55.77;51.87;;;;;;;8.34;75.48;101939.97;5027906;28;21000;-71
2021/09/21 04:20:19;;;;;;;58.20;54.17;;;;;;;8.56;76.08;101989.03;5029946;28;20475;-72
2021/09/21 04:22:47;;;;;;;79.30;74.03;;;;;;;8.35;76.07;101957.78;5027849;28;20993;-71
2021/09/21 04:25:16;;;;;;;59.73;55.60;;;;;;;8.56;76.70;101996.19;5029922;28;20932;-70
2021/09/21 04:27:47;;;;;;;56.30;52.37;;;;;;;8.54;75.99;101987.34;5028296;28;20448;-72
2021/09/21 04:30:19;;;;;;;59.30;55.20;;;;;;;8.54;75.85;101990.03;5029679;28;20513;-71
2021/09/21 04:32:48;;;;;;;62.67;58.33;;;;;;;8.55;75.80;101987.28;5026993;28;20465;-71
2021/09/21 04:35:16;;;;;;;62.17;57.90;;;;;;;8.54;76.46;101976.66;5026734;28;20881;-71
2021/09/21 04:37:44;;;;;;;76.10;71.00;;;;;;;8.31;76.06;101946.28;5024223;28;20447;-71
2021/09/21 04:40:14;;;;;;;64.07;59.70;;;;;;;8.58;75.73;101997.03;5027169;28;20453;-71
2021/09/21 04:42:43;;;;;;;81.97;76.60;;;;;;;8.33;75.47;101957.84;5024748;28;20831;-71
2021/09/21 04:45:13;;;;;;;74.50;69.53;;;;;;;8.60;75.55;101990.69;5019482;28;20471;-71
2021/09/21 04:47:41;;;;;;;60.23;56.10;;;;;;;8.62;76.50;101993.31;5030183;28;20497;-71
2021/09/21 04:50:10;;;;;;;65.10;60.67;;;;;;;8.57;77.79;101977.44;5030250;28;20460;-71
2021/09/21 04:52:38;;;;;;;87.77;81.97;;;;;;;8.28;78.11;101943.75;5028698;28;20473;-71
2021/09/21 04:55:09;;;;;;;74.00;69.07;;;;;;;8.44;79.86;101953.84;5030991;28;20450;-71
2021/09/21 04:57:37;;;;;;;73.80;68.87;;;;;;;8.20;80.28;101932.44;5029507;28;20496;-70
2021/09/21 05:00:06;;;;;;;66.97;62.40;;;;;;;8.74;78.63;101970.50;5029626;28;20444;-70
2021/09/21 05:02:36;;;;;;;80.03;74.77;;;;;;;8.78;78.76;101961.41;5028486;28;20969;-71
2021/09/21 05:05:05;;;;;;;65.60;61.13;;;;;;;8.74;78.16;101958.00;5030340;28;20774;-71
2021/09/21 05:07:33;;;;;;;84.13;78.60;;;;;;;8.82;77.70;101971.06;5029450;28;20481;-71
2021/09/21 05:10:01;;;;;;;70.30;65.53;;;;;;;8.83;77.36;101971.00;5030172;28;20919;-71
2021/09/21 05:12:30;;;;;;;59.53;55.40;;;;;;;8.84;77.28;101975.41;5029402;28;20969;-71
2021/09/21 05:14:58;;;;;;;65.50;61.00;;;;;;;8.81;77.74;101962.16;5042292;28;20928;-71
2021/09/21 05:17:26;;;;;;;61.73;57.47;;;;;;;8.88;77.92;101971.72;5026150;28;20530;-71
2021/09/21 05:19:55;;;;;;;80.93;75.57;;;;;;;8.95;77.57;101965.16;5024985;28;20487;-71
2021/09/21 05:22:23;;;;;;;64.47;60.00;;;;;;;8.96;76.90;101958.88;5028612;28;20506;-71
2021/09/21 05:24:54;;;;;;;66.03;61.50;;;;;;;8.97;76.81;101973.13;5020202;28;20451;-71
2021/09/21 05:27:22;;;;;;;58.67;54.60;;;;;;;8.97;76.76;101971.31;5026595;28;20491;-71
2021/09/21 05:29:50;;;;;;;65.60;61.13;;;;;;;8.97;77.03;101960.59;5024809;28;20454;-70
2021/09/21 05:32:18;;;;;;;64.83;60.37;;;;;;;8.95;77.17;101956.25;5026162;28;20575;-71
2021/09/21 05:34:47;;;;;;;89.07;83.20;;;;;;;8.98;76.76;101965.03;5024731;28;20688;-71
2021/09/21 05:37:17;;;;;;;71.23;66.40;;;;;;;8.97;76.72;101960.59;5040981;28;20461;-72
2021/09/21 05:39:45;;;;;;;59.27;55.10;;;;;;;8.94;76.92;101946.47;5018679;28;20525;-71
2021/09/21 05:42:13;;;;;;;58.40;54.37;;;;;;;8.97;77.17;101952.56;5017340;28;20562;-70
2021/09/21 05:44:41;;;;;;;60.60;56.40;;;;;;;8.90;77.85;101940.38;5034001;28;20987;-70
2021/09/21 05:47:11;;;;;;;69.30;64.63;;;;;;;8.97;77.32;101952.56;5009399;28;20488;-71
2021/09/21 05:49:39;;;;;;;64.03;59.57;;;;;;;8.97;77.07;101941.84;5022436;28;20467;-71
2021/09/21 05:52:08;;;;;;;73.07;68.17;;;;;;;9.06;76.71;101945.94;5036755;28;20528;-71
2021/09/21 05:54:38;;;;;;;69.90;65.13;;;;;;;8.98;77.94;101937.38;5018990;28;20520;-71
2021/09/21 05:57:06;;;;;;;76.60;71.50;;;;;;;9.07;77.01;101941.47;5013852;28;20849;-71
2021/09/21 05:59:34;;;;;;;67.93;63.30;;;;;;;8.96;78.53;101937.44;5028750;28;20432;-70
2021/09/21 06:02:02;;;;;;;62.30;57.97;;;;;;;9.06;77.54;101939.72;5027813;28;20540;-71
2021/09/21 06:04:31;;;;;;;87.23;81.53;;;;;;;9.06;77.70;101931.69;5044343;28;20453;-70
2021/09/21 06:07:00;;;;;;;79.90;74.63;;;;;;;8.80;78.82;101898.81;5032020;28;20487;-71
2021/09/21 06:09:28;;;;;;;75.47;70.43;;;;;;;9.00;77.89;101922.97;5029266;28;20799;-71
2021/09/21 06:11:57;;;;;;;56.20;52.27;;;;;;;9.10;77.52;101931.47;5026113;28;20578;-70
2021/09/21 06:14:25;;;;;;;52.97;49.27;;;;;;;9.16;77.79;101928.53;5036970;28;20518;-71
2021/09/21 06:16:53;;;;;;;88.57;82.80;;;;;;;9.09;78.68;101935.09;5030198;28;20560;-70
2021/09/21 06:19:21;;;;;;;75.30;70.23;;;;;;;9.08;79.16;101929.81;5040178;28;20552;-70
2021/09/21 06:21:49;;;;;;;61.73;57.47;;;;;;;9.18;77.47;101931.16;5027546;28;20456;-70
2021/09/21 06:24:17;;;;;;;84.63;79.10;;;;;;;9.11;79.38;101921.63;5028085;28;20448;-70
2021/09/21 06:26:46;;;;;;;72.03;67.17;;;;;;;9.21;78.09;101925.69;5024595;28;20897;-70
2021/09/21 06:29:16;;;;;;;58.73;54.67;;;;;;;9.29;78.20;101916.38;5029025;28;20457;-70
2021/09/21 06:31:44;;;;;;;87.43;81.70;;;;;;;9.32;78.29;101920.72;5029523;28;20530;-70
2021/09/21 06:34:12;;;;;;;83.93;78.43;;;;;;;9.24;77.74;101906.78;5029405;28;20450;-70
2021/09/21 06:36:40;;;;;;;67.50;62.93;;;;;;;9.36;78.41;101906.25;5029369;28;20542;-70
2021/09/21 06:39:08;;;;;;;71.00;66.20;;;;;;;9.52;78.68;101918.03;5029112;28;20464;-70
2021/09/21 06:41:36;;;;;;;69.03;64.33;;;;;;;9.60;79.61;101920.38;5029427;28;21009;-70
2021/09/21 06:44:04;;;;;;;70.40;65.67;;;;;;;9.68;80.23;101917.34;5028734;28;20509;-70
2021/09/21 06:46:34;;;;;;;72.67;67.80;;;;;;;9.54;80.17;101916.16;5029475;28;20847;-70
2021/09/21 06:49:02;;;;;;;64.47;60.00;;;;;;;10.00;81.49;101931.97;5028813;28;20523;-70
2021/09/21 06:51:31;;;;;;;65.20;60.73;;;;;;;10.11;80.27;101922.50;5029280;28;20976;-70
2021/09/21 06:53:59;;;;;;;64.17;59.73;;;;;;;10.23;78.21;101923.75;5028518;28;20460;-71
2021/09/21 06:56:28;;;;;;;66.03;61.53;;;;;;;10.25;78.77;101920.03;5029165;28;20542;-71
2021/09/21 06:58:57;;;;;;;93.57;87.50;;;;;;;10.33;77.69;101908.06;5027706;28;20947;-71
2021/09/21 07:01:26;;;;;;;67.13;62.53;;;;;;;10.38;77.04;101911.41;5014109;28;20543;-71
2021/09/21 07:03:56;;;;;;;59.33;55.23;;;;;;;10.41;77.26;101916.66;5017306;28;20467;-70
2021/09/21 07:06:24;;;;;;;71.70;66.83;;;;;;;10.47;76.40;101919.03;5024354;28;20446;-70
2021/09/21 07:08:52;;;;;;;78.23;73.03;;;;;;;10.50;76.60;101919.75;5028507;28;20983;-70
2021/09/21 07:11:21;;;;;;;89.53;83.77;;;;;;;10.36;77.84;101911.47;5022053;28;20918;-71
2021/09/21 07:13:50;;;;;;;67.87;63.20;;;;;;;10.45;77.72;101918.22;5042721;28;20477;-71
2021/09/21 07:16:18;;;;;;;68.43;63.77;;;;;;;10.39;77.31;101899.72;5028849;28;20467;-71
2021/09/21 07:18:46;;;;;;;64.07;59.67;;;;;;;10.48;77.55;101899.28;5023061;28;20511;-71
2021/09/21 07:21:15;;;;;;;86.13;80.53;;;;;;;10.50;77.30;101894.72;5013203;28;20497;-71
2021/09/21 07:23:45;;;;;;;89.63;83.77;;;;;;;10.49;77.06;101896.53;5042003;28;20941;-71
2021/09/21 07:26:13;;;;;;;72.37;67.50;;;;;;;10.48;76.12;101885.84;5021872;28;20462;-71
2021/09/21 07:28:42;;;;;;;85.93;80.33;;;;;;;10.63;76.13;101894.97;5025961;28;20644;-71
2021/09/21 07:31:11;;;;;;;84.83;79.27;;;;;;;10.66;75.60;101895.69;5024907;28;20482;-71
2021/09/21 07:33:39;;;;;;;67.67;63.10;;;;;;;10.74;75.85;101909.63;5021882;28;21063;-71
2021/09/21 07:36:07;;;;;;;87.83;82.17;;;;;;;10.75;75.16;101902.44;5027784;28;20512;-71
2021/09/21 07:38:37;;;;;;;94.20;88.10;;;;;;;10.79;75.29;101910.25;5026987;28;20462;-71
2021/09/21 07:41:05;;;;;;;60.63;56.43;;;;;;;10.87;75.11;101913.41;5026135;28;20465;-71
2021/09/21 07:43:33;;;;;;;74.93;70.00;;;;;;;10.93;74.75;101914.06;5024549;28;20460;-71
2021/09/21 07:46:01;;;;;;;64.83;60.37;;;;;;;10.92;75.38;101909.63;5021977;28;20466;-70
2021/09/21 07:48:29;;;;;;;97.00;90.80;;;;;;;10.97;74.81;101910.25;5031622;28;20508;-71
2021/09/21 07:50:57;;;;;;;92.23;86.23;;;;;;;11.03;75.34;101899.22;5027699;28;20468;-71
2021/09/21 07:53:25;;;;;;;69.90;65.17;;;;;;;11.12;74.86;101910.38;5044643;28;20460;-71
2021/09/21 07:55:55;;;;;;;62.73;58.37;;;;;;;11.16;74.94;101908.38;5034547;28;20466;-71
2021/09/21 07:58:43;;;;;;;77.57;72.43;;;;;;;11.26;75.10;101909.63;5034713;28;20455;-71
2021/09/21 08:01:11;;;;;;;73.97;69.00;;;;;;;11.32;74.50;101912.00;5028311;28;20469;-71
2021/09/21 08:03:40;;;;;;;75.13;70.13;;;;;;;11.35;73.34;101911.88;5044329;28;20582;-71
2021/09/21 08:06:09;;;;;;;73.23;68.30;;;;;;;11.41;73.18;101903.47;5038847;28;20878;-71
2021/09/21 08:08:40;;;;;;;63.43;59.10;;;;;;;11.35;73.14;101884.97;5035086;28;21016;-71
2021/09/21 08:11:10;;;;;;;70.03;65.27;;;;;;;11.66;72.19;101915.63;5032433;28;20703;-71
2021/09/21 08:13:39;;;;;;;72.00;65.57;;;;;;;11.79;71.87;101906.84;5034844;28;20462;-71
2021/09/21 08:16:07;;;;;;;566.67;223.20;;;;;;;11.92;71.99;101914.22;5031161;28;20881;-71
2021/09/21 08:18:36;;;;;;;575.20;224.47;;;;;;;11.69;71.44;101858.97;5034712;28;20450;-71
2021/09/21 08:21:04;;;;;;;430.13;171.33;;;;;;;12.16;70.42;101907.50;5046183;28;20461;-71
2021/09/21 08:23:33;;;;;;;575.70;218.20;;;;;;;12.23;71.02;101902.63;5020348;28;20529;-71
2021/09/21 08:26:01;;;;;;;54.87;50.83;;;;;;;12.29;71.42;101908.56;5030851;28;20948;-71
2021/09/21 08:28:34;;;;;;;60.07;55.73;;;;;;;12.40;71.00;101905.28;5049620;28;20553;-71
2021/09/21 08:31:02;;;;;;;53.00;45.77;;;;;;;12.49;69.87;101904.72;5047778;28;20839;-71
2021/09/21 08:33:30;;;;;;;437.33;188.57;;;;;;;12.58;69.66;101912.31;5029596;28;20460;-71
2021/09/21 08:36:21;;;;;;;584.97;227.43;;;;;;;12.51;68.67;101905.50;5023567;28;20438;-71
2021/09/21 08:38:50;;;;;;;443.63;198.43;;;;;;;12.58;69.60;101904.22;5021378;28;20476;-71
2021/09/21 08:41:18;;;;;;;592.63;244.80;;;;;;;12.67;69.43;101903.69;5029653;28;20451;-71
2021/09/21 08:43:48;;;;;;;601.03;257.07;;;;;;;12.75;68.50;101905.94;5031903;28;20455;-71
2021/09/21 08:46:17;;;;;;;71.70;66.50;;;;;;;12.35;68.28;101845.41;5020758;28;20450;-71
2021/09/21 08:48:45;;;;;;;48.80;44.87;;;;;;;12.59;69.07;101903.28;5032030;28;20574;-71
2021/09/21 08:51:13;;;;;;;433.77;186.60;;;;;;;12.75;68.90;101909.50;5031852;28;20451;-71
2021/09/21 08:53:41;;;;;;;446.33;196.90;;;;;;;12.70;68.33;101908.03;5025935;28;20461;-71
2021/09/21 08:56:09;;;;;;;589.27;241.03;;;;;;;12.52;68.98;101847.09;5026672;28;20468;-71
2021/09/21 08:58:37;;;;;;;625.30;310.37;;;;;;;12.97;68.85;101905.56;5025186;28;20467;-71
2021/09/21 09:01:14;;;;;;;460.90;230.10;;;;;;;13.04;68.65;101904.22;5029137;28;20791;-71
2021/09/21 09:03:53;;;;;;;599.77;263.63;;;;;;;13.06;68.73;101910.41;5030543;28;20814;-71
2021/09/21 09:06:21;;;;;;;630.50;318.03;;;;;;;13.20;68.20;101910.50;5030159;28;20511;-71
2021/09/21 09:08:49;;;;;;;462.47;224.63;;;;;;;13.14;67.01;101901.84;5029534;28;20491;-71
2021/09/21 09:11:20;;;;;;;604.90;264.10;;;;;;;12.97;67.97;101901.03;5019514;28;20822;-71
2021/09/21 09:13:52;;;;;;;624.83;280.97;;;;;;;12.84;68.40;101904.53;5028785;28;20461;-71
2021/09/21 09:16:23;;;;;;;92.13;85.87;;;;;;;12.89;68.45;101899.75;5025950;28;20461;-71
2021/09/21 09:19:02;;;;;;;96.13;89.63;;;;;;;13.04;67.86;101897.00;5025776;28;20795;-71
2021/09/21 09:21:32;;;;;;;76.80;71.67;;;;;;;13.14;68.36;101896.44;5027101;28;21017;-71
2021/09/21 09:24:01;;;;;;;85.83;80.27;;;;;;;12.92;67.94;101889.66;5034216;28;20475;-71
2021/09/21 09:26:31;;;;;;;88.93;83.27;;;;;;;13.01;67.79;101889.09;5024237;28;20483;-71
2021/09/21 09:28:59;;;;;;;94.27;88.23;;;;;;;13.17;66.98;101888.19;5029899;28;20652;-71
2021/09/21 09:31:30;;;;;;;111.83;104.00;;;;;;;13.29;67.43;101880.25;5029909;28;20450;-71
2021/09/21 09:34:10;;;;;;;453.37;217.60;;;;;;;12.98;67.58;101827.25;5030197;28;20447;-71
2021/09/21 09:36:47;;;;;;;611.10;280.17;;;;;;;13.58;67.42;101885.69;5027342;28;20463;-71
2021/09/21 09:39:16;;;;;;;605.17;241.67;;;;;;;13.80;66.86;101883.41;5028881;28;20464;-71
2021/09/21 09:41:45;;;;;;;610.77;243.67;;;;;;;14.01;65.60;101880.28;5030141;28;20487;-71
2021/09/21 09:44:15;;;;;;;453.07;195.43;;;;;;;13.95;64.95;101852.69;5027460;28;20474;-72
2021/09/21 09:46:47;;;;;;;458.83;208.30;;;;;;;14.20;64.90;101878.13;5020414;28;20452;-72
2021/09/21 09:49:20;;;;;;;457.57;204.57;;;;;;;13.48;64.24;101728.00;5025229;28;20490;-72
2021/09/21 09:51:49;;;;;;;53.10;49.30;;;;;;;14.48;64.27;101875.41;5024763;28;20455;-72
2021/09/21 09:54:18;;;;;;;61.43;57.23;;;;;;;14.65;63.74;101873.41;5044409;28;20900;-72
2021/09/21 09:56:47;;;;;;;444.40;178.10;;;;;;;14.77;64.15;101869.91;5028871;28;20462;-72
2021/09/21 09:59:17;;;;;;;453.47;174.23;;;;;;;14.86;63.40;101867.44;5023227;28;20444;-71
2021/09/21 10:01:46;;;;;;;462.53;194.50;;;;;;;14.73;61.26;101862.97;5025667;28;20525;-71
2021/09/21 10:04:16;;;;;;;57.53;53.60;;;;;;;14.74;63.25;101867.41;5030201;28;20461;-71
2021/09/21 10:06:44;;;;;;;73.13;67.47;;;;;;;14.86;63.43;101877.38;5029941;28;20455;-71
2021/09/21 10:09:17;;;;;;;453.47;175.60;;;;;;;14.96;62.64;101873.06;5029016;28;20478;-71
2021/09/21 10:11:47;;;;;;;454.07;178.33;;;;;;;14.63;61.35;101837.50;5022092;28;20535;-72
2021/09/21 10:14:20;;;;;;;81.57;76.33;;;;;;;14.79;58.73;101863.41;5028304;28;20455;-72
2021/09/21 10:16:53;;;;;;;86.17;80.73;;;;;;;14.75;61.74;101871.84;5024143;28;20469;-71
2021/09/21 10:19:23;;;;;;;507.70;258.07;;;;;;;14.50;60.64;101832.91;5019123;28;20480;-71
2021/09/21 10:21:54;;;;;;;339.20;164.87;;;;;;;14.71;60.39;101871.19;5026857;28;20458;-71
2021/09/21 10:24:32;;;;;;;244.47;223.23;;;;;;;14.91;62.32;101865.28;5028259;28;20491;-71
2021/09/21 10:27:04;;;;;;;118.30;110.40;;;;;;;15.01;60.75;101873.66;5030990;28;20469;-71
2021/09/21 10:29:33;;;;;;;92.60;85.70;;;;;;;14.80;61.39;101842.63;5030309;28;20500;-71
2021/09/21 10:32:10;;;;;;;71.80;67.23;;;;;;;15.17;62.27;101873.44;5030954;28;20499;-71
2021/09/21 10:34:40;;;;;;;80.23;74.07;;;;;;;15.15;61.39;101868.16;5026086;28;20458;-71
2021/09/21 10:37:09;;;;;;;456.27;190.20;;;;;;;15.32;62.34;101863.41;5018554;28;20716;-71
2021/09/21 10:39:37;;;;;;;80.50;75.13;;;;;;;15.42;61.40;101859.09;5018478;28;20460;-71
2021/09/21 10:42:07;;;;;;;85.87;80.40;;;;;;;15.53;61.80;101864.59;5027433;28;20473;-71
2021/09/21 10:44:36;;;;;;;304.77;135.23;;;;;;;15.65;61.31;101852.94;5020698;28;20460;-71
2021/09/21 10:47:08;;;;;;;447.80;145.27;;;;;;;15.47;60.40;101821.72;5022234;28;20844;-71
2021/09/21 10:49:38;;;;;;;422.23;121.83;;;;;;;15.32;58.82;101812.00;5024003;28;20493;-71
2021/09/21 10:52:08;;;;;;;436.73;149.73;;;;;;;15.35;59.36;101800.94;5019363;28;20458;-71
2021/09/21 10:54:38;;;;;;;73.27;68.27;;;;;;;15.20;59.48;101797.47;5017600;28;20455;-72
2021/09/21 10:57:15;;;;;;;72.33;67.53;;;;;;;15.65;60.36;101847.53;5028859;28;20562;-71
2021/09/21 10:59:54;;;;;;;104.20;97.57;;;;;;;15.59;59.05;101845.22;5022343;28;20874;-72
2021/09/21 11:02:26;;;;;;;80.57;75.27;;;;;;;15.73;58.68;101847.84;5016239;28;20448;-72
2021/09/21 11:04:55;;;;;;;99.27;92.87;;;;;;;15.81;58.56;101844.56;5024601;28;20741;-72
2021/09/21 11:07:23;;;;;;;115.03;107.73;;;;;;;15.76;59.52;101831.38;5022712;28;20473;-72
2021/09/21 11:09:53;;;;;;;109.10;102.20;;;;;;;15.80;57.12;101815.75;5030169;28;20486;-72
2021/09/21 11:12:24;;;;;;;168.93;110.13;;;;;;;15.82;58.21;101836.34;5025249;28;20466;-72
2021/09/21 11:14:54;;;;;;;93.53;87.30;;;;;;;15.78;55.70;101829.41;5027726;28;20513;-72
2021/09/21 11:17:26;;;;;;;88.87;83.17;;;;;;;15.72;56.54;101819.03;5026702;28;20932;-72
2021/09/21 11:19:56;;;;;;;90.60;84.60;;;;;;;15.77;56.76;101827.69;5022390;28;20540;-72
2021/09/21 11:22:28;;;;;;;95.73;89.50;;;;;;;15.69;55.70;101824.66;5029203;28;20454;-71
2021/09/21 11:25:02;;;;;;;179.33;117.13;;;;;;;15.97;57.32;101815.41;5035322;28;20545;-72
2021/09/21 11:27:30;;;;;;;96.50;90.03;;;;;;;15.93;53.49;101804.91;5024178;28;20452;-73